Terminal Aerodrome Forecast
Issued by NWS

Home | Current Version | Previous Version | Text Only | Print | Product List | Glossary On
Versions: 1 2 3 4 5 6 7 8 9 10 11 12 13 14
000
FTUS45 KBYZ 202340
TAFLVM
TAF
KLVM 202340Z 2100/2124 28015G24KT P6SM FEW200
     FM210130 29010KT P6SM FEW200
     FM212000 20013G20KT P6SM SCT150=

USA.gov is the U.S. government's official web portal to all federal, state and local government web resources and services.